Time;durP1;ratioP1;P1;durP2;ratioP2;P2;SDS_P1;SDS_P2;PMS_P1;PMS_P2;Temp;Humidity;BMP_temperature;BMP_pressure;BME280_temperature;BME280_humidity;BME280_pressure;Samples;Min_cycle;Max_cycle;Signal;HPM_P1;HPM_P2
2022/06/18 00:00:12;;;;;;;6.43;4.28;;;;;;;15.97;100.00;91214.28;5010866;28;20382;-75
2022/06/18 00:02:38;;;;;;;5.85;4.00;;;;;;;16.03;100.00;91217.53;5010959;28;20060;-75
2022/06/18 00:05:04;;;;;;;5.25;3.70;;;;;;;16.01;100.00;91217.09;5011285;28;20403;-75
2022/06/18 00:07:31;;;;;;;5.68;4.22;;;;;;;16.02;100.00;91211.38;5010819;28;20030;-75
2022/06/18 00:10:04;;;;;;;4.85;3.67;;;;;;;15.93;100.00;91221.44;5010706;28;20109;-75
2022/06/18 00:15:30;;;;;;;4.78;3.95;;;;;;;15.91;100.00;91212.94;5010797;28;20416;-77
2022/06/18 00:17:56;;;;;;;6.72;4.20;;;;;;;15.85;100.00;91225.78;5011048;28;20026;-76
2022/06/18 00:20:26;;;;;;;5.35;4.30;;;;;;;15.69;100.00;91219.50;5010717;28;20029;-76
2022/06/18 00:22:56;;;;;;;5.80;4.32;;;;;;;15.71;100.00;91224.53;5010747;28;20033;-76
2022/06/18 00:25:31;;;;;;;7.32;4.50;;;;;;;15.72;100.00;91224.19;5012887;28;20097;-76
2022/06/18 00:27:57;;;;;;;6.47;4.32;;;;;;;15.71;100.00;91232.56;5014554;28;20038;-76
2022/06/18 00:30:25;;;;;;;7.65;4.28;;;;;;;15.67;100.00;91213.69;5014383;28;20443;-76
2022/06/18 00:32:51;;;;;;;6.72;4.30;;;;;;;15.80;100.00;91220.66;5014340;28;20519;-75
2022/06/18 00:35:17;;;;;;;6.05;4.03;;;;;;;15.90;100.00;91222.09;5014380;28;20061;-76
2022/06/18 00:37:43;;;;;;;6.82;4.15;;;;;;;15.86;100.00;91213.16;5014363;28;20024;-76
2022/06/18 00:40:25;;;;;;;6.32;4.28;;;;;;;15.90;100.00;91207.91;5014196;28;20411;-76
2022/06/18 00:42:51;;;;;;;5.72;4.28;;;;;;;15.83;100.00;91214.59;5014201;28;20029;-75
2022/06/18 00:45:21;;;;;;;5.47;4.05;;;;;;;15.72;100.00;91194.69;5014294;28;20080;-75
2022/06/18 00:48:13;;;;;;;6.03;4.25;;;;;;;15.75;100.00;91210.09;5014125;28;20030;-75
2022/06/18 00:50:52;;;;;;;6.22;4.15;;;;;;;15.86;100.00;91213.94;5011725;28;20034;-75
2022/06/18 00:53:23;;;;;;;7.10;4.22;;;;;;;15.90;100.00;91215.94;5013982;28;20034;-75
2022/06/18 00:56:12;;;;;;;6.07;4.55;;;;;;;15.84;100.00;91208.13;5014038;28;20488;-74
2022/06/18 00:58:47;;;;;;;4.90;4.30;;;;;;;15.82;100.00;91215.72;5013822;28;20026;-75
2022/06/18 01:01:18;;;;;;;5.35;4.00;;;;;;;15.74;100.00;91213.91;5013810;28;20036;-75
2022/06/18 01:03:46;;;;;;;6.10;4.20;;;;;;;15.64;100.00;91208.22;5013791;28;20132;-74
2022/06/18 01:06:28;;;;;;;5.00;4.10;;;;;;;15.59;100.00;91206.50;5013782;28;20034;-74
2022/06/18 01:09:14;;;;;;;5.60;4.47;;;;;;;15.53;100.00;91207.81;5016598;28;20227;-75
2022/06/18 01:11:41;;;;;;;6.78;4.72;;;;;;;15.53;100.00;91207.81;5033375;28;20036;-75
2022/06/18 01:14:11;;;;;;;6.60;5.10;;;;;;;15.61;100.00;91206.94;5015544;28;20392;-75
2022/06/18 01:16:37;;;;;;;6.85;4.70;;;;;;;15.74;100.00;91207.75;5033318;28;20026;-75
2022/06/18 01:19:07;;;;;;;7.60;4.18;;;;;;;15.82;100.00;91209.56;5033187;28;20029;-75
2022/06/18 01:21:42;;;;;;;5.47;3.92;;;;;;;15.81;100.00;91203.44;5033437;28;20040;-74
2022/06/18 01:24:16;;;;;;;5.25;4.32;;;;;;;15.89;100.00;91207.13;5033270;28;20053;-75
2022/06/18 01:26:44;;;;;;;6.55;4.22;;;;;;;15.88;100.00;91206.34;5033203;28;20017;-76
2022/06/18 01:29:10;;;;;;;6.22;4.82;;;;;;;15.84;100.00;91204.66;5033125;28;20037;-76
2022/06/18 01:31:36;;;;;;;7.45;4.20;;;;;;;15.74;100.00;91197.81;5033192;28;20025;-76
2022/06/18 01:34:04;;;;;;;7.05;4.88;;;;;;;15.71;100.00;91198.50;5032973;28;20034;-76
2022/06/18 01:36:33;;;;;;;5.85;4.47;;;;;;;15.68;100.00;91195.69;5032851;28;20083;-76
2022/06/18 01:39:00;;;;;;;7.20;4.75;;;;;;;15.65;100.00;91199.03;5032824;28;20037;-76
2022/06/18 01:41:52;;;;;;;5.63;4.65;;;;;;;15.56;100.00;91197.19;5032811;28;20088;-77
2022/06/18 01:44:29;;;;;;;5.45;4.20;;;;;;;15.52;100.00;91198.19;5032791;28;20037;-77
2022/06/18 01:47:01;;;;;;;5.90;4.57;;;;;;;15.53;100.00;91199.75;5032641;28;20029;-77
2022/06/18 01:49:43;;;;;;;6.53;4.85;;;;;;;15.54;100.00;91194.06;5032685;28;20480;-76
2022/06/18 01:52:09;;;;;;;5.88;4.57;;;;;;;15.53;100.00;91199.75;5032668;28;20026;-76
2022/06/18 01:54:44;;;;;;;6.57;4.45;;;;;;;15.56;100.00;91191.84;5032565;28;20036;-76
2022/06/18 01:57:18;;;;;;;6.10;5.00;;;;;;;15.60;100.00;91199.25;5032625;28;20061;-76
2022/06/18 01:59:51;;;;;;;5.93;4.40;;;;;;;15.59;100.00;91195.78;5032361;28;20036;-76
2022/06/18 02:02:17;;;;;;;5.53;4.57;;;;;;;15.66;100.00;91201.38;5014681;28;20467;-76
2022/06/18 02:04:43;;;;;;;4.68;3.90;;;;;;;15.69;100.00;91198.03;5032363;28;20060;-76
2022/06/18 02:07:09;;;;;;;6.43;3.72;;;;;;;15.72;100.00;91200.06;5032454;28;20411;-76
2022/06/18 02:10:19;;;;;;;4.93;4.05;;;;;;;15.68;100.00;91193.78;5032106;28;20045;-76
2022/06/18 02:12:45;;;;;;;5.32;4.10;;;;;;;15.68;100.00;91199.16;4990697;28;20046;-76
2022/06/18 02:15:17;;;;;;;5.18;4.13;;;;;;;15.67;100.00;91192.22;4990713;28;20542;-76
2022/06/18 02:17:43;;;;;;;5.65;4.40;;;;;;;15.80;100.00;91196.50;5013323;28;20107;-76
2022/06/18 02:20:12;;;;;;;4.93;4.07;;;;;;;15.81;100.00;91198.06;5032047;28;20026;-76
2022/06/18 02:22:44;;;;;;;5.38;4.18;;;;;;;15.78;100.00;91187.19;5032003;28;20460;-76
2022/06/18 02:25:11;;;;;;;5.28;4.28;;;;;;;15.81;100.00;91195.38;5032036;28;20427;-76
2022/06/18 02:27:39;;;;;;;5.93;4.57;;;;;;;15.74;100.00;91197.03;5031944;28;20037;-76
2022/06/18 02:30:13;;;;;;;6.07;4.43;;;;;;;15.75;100.00;91204.75;5031856;28;20029;-76
2022/06/18 02:32:48;;;;;;;5.88;4.75;;;;;;;15.70;100.00;91201.50;5031826;28;20037;-79
2022/06/18 02:35:15;;;;;;;7.90;4.80;;;;;;;15.68;100.00;91199.16;5031772;28;20462;-78
2022/06/18 02:37:41;;;;;;;5.72;4.38;;;;;;;15.70;100.00;91196.13;5031859;28;20026;-77
2022/06/18 02:40:23;;;;;;;4.85;4.18;;;;;;;15.78;100.00;91195.25;5031695;28;20410;-78
2022/06/18 02:42:52;;;;;;;4.38;3.75;;;;;;;15.67;100.00;91186.09;5031713;28;20040;-77
2022/06/18 02:45:19;;;;;;;6.00;4.00;;;;;;;15.64;100.00;91187.53;5031746;28;20040;-76
2022/06/18 02:47:45;;;;;;;5.85;4.00;;;;;;;15.54;100.00;91193.28;5030977;28;20108;-76
2022/06/18 02:50:14;;;;;;;6.53;3.95;;;;;;;15.62;100.00;91189.78;5031554;28;20036;-76
2022/06/18 02:52:44;;;;;;;5.25;4.40;;;;;;;15.61;100.00;91187.38;5031518;28;20091;-75
2022/06/18 02:55:12;;;;;;;6.05;4.82;;;;;;;15.52;100.00;91192.84;5031465;28;20036;-76
2022/06/18 02:57:39;;;;;;;8.48;4.28;;;;;;;15.50;100.00;91181.66;5031477;28;20025;-76
2022/06/18 03:00:08;;;;;;;6.80;4.50;;;;;;;15.57;100.00;91181.88;5031229;28;20033;-76
2022/06/18 03:02:34;;;;;;;4.63;3.72;;;;;;;15.61;100.00;91188.19;5031351;28;20028;-76
2022/06/18 03:05:00;;;;;;;6.47;4.18;;;;;;;15.61;100.00;91193.53;5031370;28;20041;-77
2022/06/18 03:07:25;;;;;;;7.07;4.47;;;;;;;15.61;100.00;91193.53;5031326;28;20021;-76
2022/06/18 03:12:35;;;;;;;9.25;4.25;;;;;;;15.47;100.00;91190.38;5031407;28;20055;-75
2022/06/18 03:15:00;;;;;;;5.22;4.03;;;;;;;15.45;100.00;91195.25;5031214;28;20022;-74
2022/06/18 03:17:26;;;;;;;4.90;3.92;;;;;;;15.39;100.00;91197.38;5031487;28;20392;-74
2022/06/18 03:19:59;;;;;;;7.10;4.20;;;;;;;15.41;100.00;91203.19;5030942;28;20026;-75
2022/06/18 03:22:25;;;;;;;5.63;4.15;;;;;;;15.33;100.00;91197.91;5031116;28;20474;-75
2022/06/18 03:24:50;;;;;;;5.22;4.30;;;;;;;15.28;100.00;91202.34;5031071;28;20496;-76
2022/06/18 03:27:17;;;;;;;4.63;3.78;;;;;;;15.24;100.00;91201.47;5031095;28;20029;-76
2022/06/18 03:29:44;;;;;;;5.07;4.20;;;;;;;15.16;100.00;91199.66;5030956;28;20053;-75
2022/06/18 03:32:09;;;;;;;6.03;4.10;;;;;;;15.10;100.00;91200.94;5030998;28;20472;-74
2022/06/18 03:34:35;;;;;;;7.35;4.25;;;;;;;15.00;100.00;91205.94;5030853;28;20163;-74
2022/06/18 03:37:00;;;;;;;7.35;4.80;;;;;;;14.85;100.00;91192.03;5030961;28;20038;-75
2022/06/18 03:39:26;;;;;;;6.30;4.47;;;;;;;14.81;100.00;91198.34;5030848;28;20026;-74
2022/06/18 03:41:52;;;;;;;7.55;4.57;;;;;;;14.77;100.00;91206.25;5030946;28;20072;-75
2022/06/18 03:44:18;;;;;;;6.55;4.35;;;;;;;14.70;100.00;91213.28;5031186;28;20108;-75
2022/06/18 03:46:45;;;;;;;6.55;4.82;;;;;;;14.74;100.00;91208.81;5031094;28;20109;-75
2022/06/18 03:49:32;;;;;;;5.28;4.22;;;;;;;14.85;100.00;91204.66;5031188;28;20034;-74
2022/06/18 03:51:58;;;;;;;6.13;4.85;;;;;;;14.87;100.00;91199.75;5030781;28;20040;-71
2022/06/18 03:54:24;;;;;;;6.10;4.40;;;;;;;14.88;100.00;91199.41;5030854;28;20021;-70
2022/06/18 03:56:50;;;;;;;6.68;4.75;;;;;;;14.83;100.00;91201.50;5031071;28;20510;-74
2022/06/18 03:59:16;;;;;;;7.72;4.95;;;;;;;14.68;100.00;91201.00;5030804;28;20030;-73
2022/06/18 04:01:42;;;;;;;7.97;5.03;;;;;;;14.55;100.00;91203.91;5034725;28;20033;-72
2022/06/18 04:04:08;;;;;;;8.48;5.20;;;;;;;14.63;100.00;91203.84;5034725;28;20070;-72
2022/06/18 04:06:34;;;;;;;9.18;5.50;;;;;;;14.63;100.00;91197.72;5034632;28;20045;-72
2022/06/18 04:08:59;;;;;;;7.18;5.07;;;;;;;14.65;100.00;91200.84;5016557;28;20053;-72
2022/06/18 04:11:25;;;;;;;7.90;5.10;;;;;;;14.66;100.00;91205.88;5034525;28;20021;-72
2022/06/18 04:13:50;;;;;;;10.23;5.40;;;;;;;14.76;100.00;91209.28;5034461;28;20487;-72
2022/06/18 04:16:16;;;;;;;7.63;5.18;;;;;;;14.78;100.00;91207.84;5034272;28;20036;-74
2022/06/18 04:18:43;;;;;;;7.95;5.70;;;;;;;14.74;100.00;91224.88;5034288;28;20487;-74
2022/06/18 04:21:09;;;;;;;19.65;12.10;;;;;;;14.84;100.00;91222.63;5034428;28;20131;-73
2022/06/18 04:23:35;;;;;;;141.15;72.13;;;;;;;15.13;100.00;91216.38;5034413;28;20107;-74
2022/06/18 04:26:01;;;;;;;74.53;38.60;;;;;;;15.47;100.00;91219.88;5034377;28;20067;-73
2022/06/18 04:28:27;;;;;;;9.20;6.85;;;;;;;15.63;100.00;91212.78;5034326;28;20025;-73
2022/06/18 04:30:52;;;;;;;7.78;5.38;;;;;;;15.98;100.00;91209.72;5034069;28;20479;-73
2022/06/18 04:33:18;;;;;;;5.72;4.78;;;;;;;16.37;100.00;91209.03;5034059;28;20060;-73
2022/06/18 04:35:44;;;;;;;8.45;4.30;;;;;;;16.76;100.00;91204.91;5034089;28;20026;-73
2022/06/18 04:38:11;;;;;;;5.38;4.25;;;;;;;16.95;100.00;91217.72;5034083;28;20121;-74
2022/06/18 04:40:37;;;;;;;5.30;3.92;;;;;;;17.27;100.00;91215.94;5033870;28;20021;-74
2022/06/18 04:43:05;;;;;;;4.65;3.80;;;;;;;17.45;100.00;91219.13;5016119;28;20052;-74
2022/06/18 04:45:32;;;;;;;6.82;3.95;;;;;;;17.72;100.00;91219.47;5033959;28;20108;-73
2022/06/18 04:47:59;;;;;;;4.10;3.47;;;;;;;18.01;100.00;91219.09;5033865;28;20033;-74
2022/06/18 04:50:30;;;;;;;5.53;3.58;;;;;;;17.94;100.00;91216.19;5033715;28;20566;-73
2022/06/18 04:52:56;;;;;;;4.30;3.85;;;;;;;18.31;100.00;91213.28;5033766;28;20104;-74
2022/06/18 04:55:22;;;;;;;8.10;3.80;;;;;;;18.30;100.00;91214.38;5033592;28;20028;-74
2022/06/18 04:57:47;;;;;;;4.80;3.40;;;;;;;18.61;100.00;91217.03;5033689;28;20029;-74
2022/06/18 05:00:14;;;;;;;3.55;3.17;;;;;;;18.96;100.00;91219.03;5015868;28;20095;-74
2022/06/18 05:02:40;;;;;;;3.22;2.75;;;;;;;19.07;100.00;91222.72;5033430;28;20033;-73
2022/06/18 05:05:11;;;;;;;2.90;2.50;;;;;;;19.12;100.00;91228.63;5033618;28;20128;-72
2022/06/18 05:07:36;;;;;;;3.13;2.80;;;;;;;19.32;100.00;91223.25;5033547;28;20419;-73
2022/06/18 05:10:03;;;;;;;3.95;3.33;;;;;;;19.44;100.00;91228.50;5032915;28;20042;-72
2022/06/18 05:12:28;;;;;;;21.23;11.90;;;;;;;19.65;98.68;91222.78;5033310;28;20026;-72
2022/06/18 05:14:54;;;;;;;3.63;3.25;;;;;;;19.69;100.00;91219.00;5033273;28;20025;-72
2022/06/18 05:17:23;;;;;;;3.42;3.13;;;;;;;19.76;100.00;91225.69;5033366;28;20084;-72
2022/06/18 05:19:49;;;;;;;3.90;2.72;;;;;;;19.56;90.98;91233.00;5033174;28;20466;-72
2022/06/18 05:22:15;;;;;;;3.10;2.70;;;;;;;18.97;88.09;91228.66;5033120;28;20042;-71
2022/06/18 05:24:40;;;;;;;3.22;2.92;;;;;;;19.16;92.38;91236.78;5033289;28;20040;-71
2022/06/18 05:27:06;;;;;;;5.20;2.95;;;;;;;19.35;87.76;91234.09;5033062;28;20133;-72
2022/06/18 05:29:32;;;;;;;5.20;2.90;;;;;;;19.77;84.52;91229.94;5032995;28;20029;-73
2022/06/18 05:31:57;;;;;;;3.10;2.70;;;;;;;19.63;84.68;91235.84;5033065;28;20112;-72
2022/06/18 05:34:23;;;;;;;4.95;3.67;;;;;;;19.55;90.29;91243.00;5032934;28;20022;-72
2022/06/18 05:36:49;;;;;;;3.83;2.83;;;;;;;19.44;90.02;91242.00;5032983;28;20068;-72
2022/06/18 05:39:18;;;;;;;5.70;3.38;;;;;;;19.66;92.97;91238.59;5032798;28;20503;-72
2022/06/18 05:41:44;;;;;;;3.45;2.63;;;;;;;20.02;87.04;91242.75;5032902;28;20407;-72
2022/06/18 05:44:10;;;;;;;3.47;3.13;;;;;;;20.22;85.17;91245.44;5032912;28;20035;-73
2022/06/18 05:46:35;;;;;;;3.60;2.58;;;;;;;20.56;83.48;91247.19;5032717;28;20056;-73
2022/06/18 05:49:01;;;;;;;6.75;2.78;;;;;;;21.05;79.30;91249.09;5032749;28;20021;-73
2022/06/18 05:51:27;;;;;;;3.03;2.63;;;;;;;22.67;72.41;91250.63;5032753;28;20508;-74
2022/06/18 05:53:52;;;;;;;2.92;2.63;;;;;;;25.68;60.32;91257.47;5032517;28;20021;-74
2022/06/18 05:56:18;;;;;;;2.85;2.55;;;;;;;28.55;53.09;91252.94;5032655;28;20061;-73
2022/06/18 05:58:44;;;;;;;3.30;2.30;;;;;;;30.47;47.74;91260.72;5032401;28;20053;-73
2022/06/18 06:01:09;;;;;;;2.85;2.60;;;;;;;31.03;44.50;91262.66;5032762;28;20029;-73
2022/06/18 06:03:35;;;;;;;3.30;2.67;;;;;;;33.15;41.60;91265.75;5032573;28;20029;-74
2022/06/18 06:06:01;;;;;;;4.10;3.47;;;;;;;33.61;40.40;91264.28;5032465;28;20121;-73
2022/06/18 06:08:27;;;;;;;2.83;2.53;;;;;;;33.44;39.55;91265.63;5032049;28;20108;-74
2022/06/18 06:13:36;;;;;;;2.95;2.67;;;;;;;33.31;38.74;91262.88;5032430;28;20080;-74
2022/06/18 06:16:02;;;;;;;2.75;2.55;;;;;;;31.06;41.65;91264.53;5032193;28;20033;-72
2022/06/18 06:18:29;;;;;;;2.90;2.60;;;;;;;28.30;44.97;91256.00;5031973;28;20032;-72
2022/06/18 06:20:57;;;;;;;2.97;2.22;;;;;;;26.66;47.69;91270.31;5032145;28;20510;-73
2022/06/18 06:23:23;;;;;;;2.90;2.38;;;;;;;27.03;48.14;91262.31;5031140;28;20542;-73
2022/06/18 06:25:49;;;;;;;2.90;2.45;;;;;;;27.81;47.10;91265.53;5032106;28;20037;-73
2022/06/18 06:28:27;;;;;;;2.63;2.22;;;;;;;28.61;45.42;91263.03;5031880;28;20041;-75
2022/06/18 06:30:53;;;;;;;3.30;3.00;;;;;;;26.78;48.95;91267.13;5032008;28;20036;-73
2022/06/18 06:33:19;;;;;;;3.58;2.60;;;;;;;24.66;53.26;91265.28;5028826;28;20048;-74
2022/06/18 06:35:46;;;;;;;2.70;2.50;;;;;;;23.95;55.12;91259.59;5031897;28;20030;-74
2022/06/18 06:38:12;;;;;;;3.80;2.70;;;;;;;23.40;56.40;91254.28;5031624;28;20076;-73
2022/06/18 06:40:41;;;;;;;3.15;2.85;;;;;;;22.94;58.17;91262.13;5031597;28;20515;-74
2022/06/18 06:43:07;;;;;;;3.53;2.63;;;;;;;24.29;57.29;91259.31;5031712;28;20029;-74
2022/06/18 06:45:34;;;;;;;6.43;3.00;;;;;;;25.18;54.05;91262.97;5031675;28;20449;-74
2022/06/18 06:48:01;;;;;;;2.50;2.30;;;;;;;25.45;54.35;91260.63;5031579;28;20033;-74
2022/06/18 06:50:28;;;;;;;4.22;2.85;;;;;;;27.62;50.10;91256.72;5031440;28;20079;-73
2022/06/18 06:52:54;;;;;;;2.33;2.13;;;;;;;31.01;43.58;91265.84;5031523;28;20037;-77
2022/06/18 06:58:17;;;;;;;2.40;2.20;;;;;;;32.08;39.43;91260.50;5031745;28;20044;-77
2022/06/18 07:00:47;;;;;;;2.60;2.40;;;;;;;30.87;40.30;91261.44;5031452;28;20076;-76
2022/06/18 07:03:15;;;;;;;3.92;2.88;;;;;;;32.44;39.36;91252.84;5031534;28;20056;-77
2022/06/18 07:05:41;;;;;;;3.42;2.47;;;;;;;34.65;36.63;91256.78;5031432;28;20086;-75
2022/06/18 07:08:07;;;;;;;4.75;2.85;;;;;;;33.02;37.29;91255.50;5031351;28;20483;-76
2022/06/18 07:10:33;;;;;;;2.90;2.63;;;;;;;35.72;35.08;91261.00;5014488;28;20049;-76
2022/06/18 07:12:59;;;;;;;2.40;2.20;;;;;;;35.11;34.71;91254.31;5011539;28;20089;-75
2022/06/18 07:15:24;;;;;;;3.33;2.70;;;;;;;32.93;37.14;91252.59;5011479;28;20030;-75
2022/06/18 07:17:50;;;;;;;4.07;2.50;;;;;;;31.17;39.58;91243.88;5011473;28;20022;-74
2022/06/18 07:20:18;;;;;;;3.47;2.63;;;;;;;31.88;39.98;91249.63;5011155;28;20030;-74
2022/06/18 07:22:44;;;;;;;2.55;2.35;;;;;;;31.52;40.23;91252.47;5011330;28;20428;-73
2022/06/18 07:25:12;;;;;;;2.35;2.15;;;;;;;33.62;37.16;91244.56;5011384;28;20037;-75
2022/06/18 07:27:38;;;;;;;2.53;2.13;;;;;;;32.89;36.78;91251.94;5011400;28;20097;-72
2022/06/18 07:30:05;;;;;;;3.10;2.10;;;;;;;34.32;36.10;91250.09;5011110;28;20033;-70
2022/06/18 07:32:31;;;;;;;2.33;2.13;;;;;;;35.59;33.56;91254.81;5011315;28;20484;-70
2022/06/18 07:34:57;;;;;;;2.20;2.00;;;;;;;36.33;32.81;91250.22;5010863;28;20026;-70
2022/06/18 07:37:23;;;;;;;3.55;2.47;;;;;;;37.32;32.01;91250.53;5011191;28;20087;-72
2022/06/18 07:39:49;;;;;;;2.13;2.03;;;;;;;34.87;33.05;91251.25;5011144;28;20500;-72
2022/06/18 07:42:18;;;;;;;2.42;2.20;;;;;;;30.68;39.40;91249.28;5011196;28;20033;-72
2022/06/18 07:44:44;;;;;;;2.40;2.20;;;;;;;32.03;38.66;91244.50;5011282;28;20078;-72
2022/06/18 07:47:15;;;;;;;2.13;2.00;;;;;;;34.91;34.76;91251.16;5011165;28;20087;-69
2022/06/18 07:49:42;;;;;;;2.90;2.20;;;;;;;33.91;34.09;91238.84;5011115;28;20165;-71
2022/06/18 07:52:08;;;;;;;2.92;2.50;;;;;;;35.90;33.61;91258.31;5011163;28;20026;-69
2022/06/18 07:54:33;;;;;;;2.92;2.70;;;;;;;35.54;33.65;91255.44;5011182;28;20030;-70
2022/06/18 07:56:59;;;;;;;3.78;2.90;;;;;;;33.81;34.98;91248.25;5011262;28;20026;-71
2022/06/18 07:59:24;;;;;;;5.10;3.03;;;;;;;32.41;36.29;91253.72;5011122;28;20030;-71
2022/06/18 08:01:49;;;;;;;5.22;3.70;;;;;;;28.80;41.21;91236.94;5011250;28;20488;-72
2022/06/18 08:04:15;;;;;;;6.65;3.53;;;;;;;27.19;44.85;91250.09;5011112;28;20077;-72
2022/06/18 08:06:41;;;;;;;3.35;3.00;;;;;;;29.69;41.64;91245.72;5011055;28;20110;-71
2022/06/18 08:09:07;;;;;;;5.28;3.20;;;;;;;32.17;38.16;91238.63;5010846;28;20492;-70
2022/06/18 08:11:35;;;;;;;5.30;3.08;;;;;;;33.03;37.30;91248.00;5011107;28;20049;-72
2022/06/18 08:14:00;;;;;;;4.18;2.67;;;;;;;36.13;33.42;91256.16;4987731;28;20419;-73
2022/06/18 08:16:26;;;;;;;2.95;2.72;;;;;;;37.47;32.67;91252.16;4991227;28;20041;-72
2022/06/18 08:18:52;;;;;;;2.90;2.63;;;;;;;37.71;31.67;91254.19;4990991;28;20555;-73
2022/06/18 08:21:23;;;;;;;3.17;2.88;;;;;;;35.50;33.26;91246.47;4990970;28;20416;-72
2022/06/18 08:23:50;;;;;;;3.20;2.70;;;;;;;33.13;36.71;91246.88;4990472;28;20033;-72
2022/06/18 08:26:16;;;;;;;4.30;2.95;;;;;;;31.40;39.86;91242.94;4991209;28;20034;-73
2022/06/18 08:28:41;;;;;;;7.80;3.63;;;;;;;28.41;43.07;91245.69;4990545;28;20089;-72
2022/06/18 08:31:09;;;;;;;4.30;2.83;;;;;;;27.54;45.36;91238.81;4990718;28;20030;-71
2022/06/18 08:33:34;;;;;;;3.38;2.70;;;;;;;26.14;47.61;91240.94;4990963;28;20094;-71
2022/06/18 08:36:06;;;;;;;2.95;2.72;;;;;;;27.65;47.08;91241.47;4990930;28;20026;-75
2022/06/18 08:38:33;;;;;;;3.28;2.88;;;;;;;31.51;40.85;91248.19;4990609;28;20030;-75
2022/06/18 08:41:10;;;;;;;2.63;2.42;;;;;;;33.44;36.96;91247.09;4990950;28;20084;-76
2022/06/18 08:43:55;;;;;;;4.05;2.78;;;;;;;34.67;35.58;91237.75;4991205;28;20041;-76
2022/06/18 08:46:26;;;;;;;3.65;3.28;;;;;;;31.19;39.33;91236.00;4992608;28;20023;-76
2022/06/18 08:49:26;;;;;;;3.45;3.15;;;;;;;32.17;37.92;91233.88;4994291;28;20085;-74
2022/06/18 08:52:03;;;;;;;2.70;2.50;;;;;;;32.61;38.62;91233.47;4953984;28;20556;-78
2022/06/18 08:54:57;;;;;;;3.58;2.80;;;;;;;32.98;37.42;91229.22;4994180;28;20452;-74
2022/06/18 08:57:28;;;;;;;3.45;2.85;;;;;;;33.02;37.24;91230.69;4994055;28;20034;-74
2022/06/18 09:00:11;;;;;;;3.53;2.85;;;;;;;28.79;42.83;91223.66;4993866;28;20069;-76
2022/06/18 09:02:37;;;;;;;;;;;;;;;29.04;43.65;91228.78;4994504;28;20030;-74
2022/06/18 09:05:26;;;;;;;3.30;3.00;;;;;;;27.79;44.64;91224.16;4994204;28;19910;-72
2022/06/18 09:08:11;;;;;;;4.00;3.33;;;;;;;29.28;43.52;91211.16;4993681;28;20058;-73
2022/06/18 09:10:48;;;;;;;3.65;3.30;;;;;;;33.39;38.38;91222.06;4993752;28;20051;-74
2022/06/18 09:13:25;;;;;;;3.58;3.28;;;;;;;32.70;38.07;91220.59;4993820;28;20082;-74
2022/06/18 09:15:57;;;;;;;3.10;2.90;;;;;;;31.35;39.33;91215.19;4994061;28;20045;-74
2022/06/18 09:18:34;;;;;;;4.95;3.00;;;;;;;33.16;39.29;91215.69;4993745;28;20041;-73
2022/06/18 09:21:03;;;;;;;3.80;3.00;;;;;;;32.57;37.51;91219.03;4993743;28;20827;-71
2022/06/18 09:23:39;;;;;;;4.03;3.20;;;;;;;32.61;36.69;91223.22;4993479;28;20492;-71
2022/06/18 09:26:13;;;;;;;3.95;3.00;;;;;;;34.77;35.00;91217.25;4993711;28;20045;-72
2022/06/18 09:28:52;;;;;;;3.83;3.45;;;;;;;33.44;38.21;91219.50;4993691;28;20807;-72
2022/06/18 09:31:42;;;;;;;4.10;3.38;;;;;;;31.67;38.53;91212.41;4994235;28;20030;-70
2022/06/18 09:34:20;;;;;;;3.20;2.90;;;;;;;29.52;40.97;91215.47;4994231;28;20093;-69
2022/06/18 09:36:49;;;;;;;4.03;3.63;;;;;;;30.58;40.93;91217.31;4993164;28;20038;-71
2022/06/18 09:39:25;;;;;;;4.85;3.17;;;;;;;28.63;42.67;91211.34;4993590;28;20065;-73
2022/06/18 09:42:02;;;;;;;4.15;3.33;;;;;;;28.70;44.44;91213.22;4993611;28;20030;-73
2022/06/18 09:44:45;;;;;;;4.03;2.80;;;;;;;33.01;38.30;91220.88;4993252;28;20037;-74
2022/06/18 09:47:21;;;;;;;2.83;2.63;;;;;;;30.70;40.54;91216.69;4993292;28;20085;-74
2022/06/18 09:49:47;;;;;;;3.53;3.20;;;;;;;27.70;46.19;91209.00;4993034;28;20022;-74
2022/06/18 09:52:19;;;;;;;4.95;3.20;;;;;;;28.84;44.18;91204.00;4992909;28;20045;-70
2022/06/18 09:54:57;;;;;;;6.05;3.10;;;;;;;26.89;47.20;91215.97;4993124;28;20038;-74
2022/06/18 09:57:31;;;;;;;2.65;2.45;;;;;;;26.05;47.94;91215.31;4992932;28;20043;-69
2022/06/18 10:00:10;;;;;;;3.10;2.58;;;;;;;24.36;49.98;91203.06;4992870;28;20105;-70
2022/06/18 10:02:48;;;;;;;3.65;2.45;;;;;;;23.66;51.24;91206.31;4992988;28;20042;-72
2022/06/18 10:08:09;;;;;;;5.43;3.05;;;;;;;28.69;43.32;91203.44;4992693;28;20126;-73
2022/06/18 10:10:36;;;;;;;2.88;2.58;;;;;;;30.55;41.38;91201.69;4992665;28;20108;-75
2022/06/18 10:13:10;;;;;;;4.07;3.63;;;;;;;28.29;42.58;91199.72;4992960;28;20058;-73
2022/06/18 10:15:35;;;;;;;3.25;2.95;;;;;;;29.66;44.04;91205.41;4992691;28;20492;-75
2022/06/18 10:18:16;;;;;;;3.45;3.00;;;;;;;29.71;42.02;91211.22;4992595;28;20069;-71
2022/06/18 10:21:04;;;;;;;3.10;2.80;;;;;;;29.52;44.24;91206.47;4992604;28;20484;-70
2022/06/18 10:23:42;;;;;;;2.63;2.35;;;;;;;31.14;38.28;91198.00;4992417;28;20049;-71
2022/06/18 10:26:35;;;;;;;2.50;2.30;;;;;;;32.21;37.87;91195.25;4992572;28;20037;-71
2022/06/18 10:29:03;;;;;;;2.22;2.03;;;;;;;32.65;38.65;91201.06;4992393;28;20081;-73
2022/06/18 10:31:44;;;;;;;2.30;2.10;;;;;;;31.22;39.84;91198.63;4992483;28;20151;-71
2022/06/18 10:34:50;;;;;;;6.72;2.90;;;;;;;30.41;40.67;91189.03;4992363;28;20089;-75
2022/06/18 10:37:36;;;;;;;3.08;2.75;;;;;;;31.75;39.48;91194.53;4991929;28;20023;-74
2022/06/18 10:40:12;;;;;;;5.05;3.20;;;;;;;32.62;38.49;91197.22;4951593;28;20129;-73
2022/06/18 10:42:44;;;;;;;3.17;2.65;;;;;;;33.67;36.87;91206.56;4992387;28;20105;-73
2022/06/18 10:45:35;;;;;;;2.45;2.17;;;;;;;34.96;34.38;91203.53;4992342;28;20141;-74
2022/06/18 10:48:02;;;;;;;3.17;2.60;;;;;;;33.02;36.66;91202.34;4987570;28;20424;-75
2022/06/18 10:50:29;;;;;;;2.60;2.40;;;;;;;32.41;37.88;91206.88;4992280;28;20493;-75
2022/06/18 10:52:58;;;;;;;4.95;2.75;;;;;;;30.92;40.97;91207.94;4992211;28;20453;-73
2022/06/18 10:55:24;;;;;;;3.08;2.78;;;;;;;30.36;43.19;91213.47;4992090;28;20069;-74
2022/06/18 10:57:50;;;;;;;3.55;2.80;;;;;;;29.96;42.38;91202.47;5007026;28;20058;-75
2022/06/18 11:00:17;;;;;;;4.05;3.08;;;;;;;31.40;40.64;91198.94;4992117;28;20072;-75
2022/06/18 11:02:43;;;;;;;4.13;2.90;;;;;;;32.33;40.26;91204.75;5007184;28;20187;-74
2022/06/18 11:05:19;;;;;;;2.83;2.47;;;;;;;30.32;42.55;91207.31;4992184;28;20034;-74
2022/06/18 11:07:49;;;;;;;3.25;2.65;;;;;;;28.45;45.17;91202.63;4991978;28;20109;-73
2022/06/18 11:10:33;;;;;;;3.78;2.83;;;;;;;25.55;49.58;91199.09;4991481;28;20149;-69
2022/06/18 11:13:00;;;;;;;3.30;2.80;;;;;;;24.52;53.49;91204.63;4991848;28;20039;-71
2022/06/18 11:15:38;;;;;;;2.88;2.58;;;;;;;25.53;51.88;91195.97;4992092;28;20184;-69
2022/06/18 11:18:42;;;;;;;5.03;3.50;;;;;;;26.67;51.19;91207.16;4991724;28;20038;-70
2022/06/18 11:21:17;;;;;;;3.15;2.60;;;;;;;27.69;49.30;91193.00;4988620;28;20436;-68
2022/06/18 11:23:51;;;;;;;2.70;2.50;;;;;;;26.36;49.54;91191.78;4991621;28;20082;-68
2022/06/18 11:26:22;;;;;;;3.83;3.28;;;;;;;25.42;52.12;91196.03;4991633;28;20129;-68
2022/06/18 11:28:51;;;;;;;3.08;2.53;;;;;;;25.78;53.17;91196.72;4991624;28;20125;-72
2022/06/18 11:31:44;;;;;;;5.38;3.15;;;;;;;25.44;53.29;91195.63;4991666;28;20038;-72
2022/06/18 11:34:25;;;;;;;7.43;2.75;;;;;;;25.38;53.95;91196.03;4991717;28;20049;-72
2022/06/18 11:36:56;;;;;;;3.35;2.80;;;;;;;26.46;51.16;91191.69;4991838;28;20038;-72
2022/06/18 11:39:37;;;;;;;4.60;3.00;;;;;;;26.60;50.14;91179.13;4991668;28;20042;-72
2022/06/18 11:42:41;;;;;;;3.25;2.67;;;;;;;25.59;53.00;91178.84;4991679;28;20050;-73
2022/06/18 11:45:28;;;;;;;4.47;3.05;;;;;;;24.83;57.31;91186.75;4968282;28;20057;-73
2022/06/18 11:48:15;;;;;;;3.85;2.92;;;;;;;24.41;56.82;91177.41;4991605;28;20560;-73
2022/06/18 11:50:50;;;;;;;4.32;3.15;;;;;;;24.18;57.45;91192.13;5006658;28;20452;-72
2022/06/18 11:53:34;;;;;;;3.40;3.10;;;;;;;25.03;55.22;91187.94;4991607;28;20129;-74
2022/06/18 11:56:02;;;;;;;3.00;2.70;;;;;;;25.25;57.00;91188.69;4991603;28;20034;-73
2022/06/18 11:58:46;;;;;;;3.75;3.08;;;;;;;27.11;51.38;91198.22;4991429;28;20052;-73